sensor_id;sensor_type;location;lat;lon;timestamp;temperature;humidity
11894;DHT22;6006;49.696;8.662;2023-01-16T00:01:06;5.50;1.00
11894;DHT22;6006;49.696;8.662;2023-01-16T00:03:33;5.50;99.90
11894;DHT22;6006;49.696;8.662;2023-01-16T00:06:00;5.50;1.00
11894;DHT22;6006;49.696;8.662;2023-01-16T00:08:27;5.50;99.90
11894;DHT22;6006;49.696;8.662;2023-01-16T00:10:55;5.50;12.90
11894;DHT22;6006;49.696;8.662;2023-01-16T00:13:22;5.50;99.90
11894;DHT22;6006;49.696;8.662;2023-01-16T00:15:51;5.40;1.00
11894;DHT22;6006;49.696;8.662;2023-01-16T00:18:18;5.30;1.00
11894;DHT22;6006;49.696;8.662;2023-01-16T00:20:46;5.20;1.00
11894;DHT22;6006;49.696;8.662;2023-01-16T00:23:13;5.20;1.00
11894;DHT22;6006;49.696;8.662;2023-01-16T00:25:40;5.20;1.00
11894;DHT22;6006;49.696;8.662;2023-01-16T00:28:09;5.10;99.90
11894;DHT22;6006;49.696;8.662;2023-01-16T00:30:37;5.10;23.10
11894;DHT22;6006;49.696;8.662;2023-01-16T00:33:04;5.10;1.00
11894;DHT22;6006;49.696;8.662;2023-01-16T00:35:32;5.10;99.90
11894;DHT22;6006;49.696;8.662;2023-01-16T00:37:59;5.10;99.90
11894;DHT22;6006;49.696;8.662;2023-01-16T00:40:26;5.10;1.00
11894;DHT22;6006;49.696;8.662;2023-01-16T00:42:53;5.10;52.30
11894;DHT22;6006;49.696;8.662;2023-01-16T00:45:22;5.00;1.00
11894;DHT22;6006;49.696;8.662;2023-01-16T00:47:49;4.90;1.00
11894;DHT22;6006;49.696;8.662;2023-01-16T00:50:16;5.00;1.00
11894;DHT22;6006;49.696;8.662;2023-01-16T00:52:42;4.90;49.10
11894;DHT22;6006;49.696;8.662;2023-01-16T00:55:09;4.90;76.40
11894;DHT22;6006;49.696;8.662;2023-01-16T00:57:36;4.80;99.90
11894;DHT22;6006;49.696;8.662;2023-01-16T01:00:04;4.90;1.00
11894;DHT22;6006;49.696;8.662;2023-01-16T01:02:33;4.90;1.00
11894;DHT22;6006;49.696;8.662;2023-01-16T01:05:00;4.90;1.00
11894;DHT22;6006;49.696;8.662;2023-01-16T01:07:26;4.80;99.90
11894;DHT22;6006;49.696;8.662;2023-01-16T01:09:53;4.90;1.00
11894;DHT22;6006;49.696;8.662;2023-01-16T01:12:20;4.80;1.00
11894;DHT22;6006;49.696;8.662;2023-01-16T01:14:47;4.80;99.90
11894;DHT22;6006;49.696;8.662;2023-01-16T01:17:14;4.80;99.90
11894;DHT22;6006;49.696;8.662;2023-01-16T01:19:42;4.80;1.00
11894;DHT22;6006;49.696;8.662;2023-01-16T01:22:09;4.80;99.90
11894;DHT22;6006;49.696;8.662;2023-01-16T01:24:36;4.80;99.90
11894;DHT22;6006;49.696;8.662;2023-01-16T01:27:03;4.80;1.00
11894;DHT22;6006;49.696;8.662;2023-01-16T01:29:30;4.90;99.90
11894;DHT22;6006;49.696;8.662;2023-01-16T01:31:57;4.90;99.90
11894;DHT22;6006;49.696;8.662;2023-01-16T01:34:24;4.90;1.00
11894;DHT22;6006;49.696;8.662;2023-01-16T01:36:52;4.90;99.90
11894;DHT22;6006;49.696;8.662;2023-01-16T01:39:19;5.00;99.90
11894;DHT22;6006;49.696;8.662;2023-01-16T01:41:46;5.00;99.90
11894;DHT22;6006;49.696;8.662;2023-01-16T01:44:48;5.00;99.90
11894;DHT22;6006;49.696;8.662;2023-01-16T01:47:17;5.10;99.90
11894;DHT22;6006;49.696;8.662;2023-01-16T01:49:46;5.10;1.00
11894;DHT22;6006;49.696;8.662;2023-01-16T01:52:15;5.00;99.90
11894;DHT22;6006;49.696;8.662;2023-01-16T01:54:44;5.00;99.90
11894;DHT22;6006;49.696;8.662;2023-01-16T01:57:15;5.00;99.90
11894;DHT22;6006;49.696;8.662;2023-01-16T01:59:47;5.10;99.90
11894;DHT22;6006;49.696;8.662;2023-01-16T02:02:18;5.00;1.00
11894;DHT22;6006;49.696;8.662;2023-01-16T02:04:47;5.00;1.00
11894;DHT22;6006;49.696;8.662;2023-01-16T02:07:19;4.90;99.90
11894;DHT22;6006;49.696;8.662;2023-01-16T02:09:46;4.80;99.90
11894;DHT22;6006;49.696;8.662;2023-01-16T02:12:15;4.90;1.00
11894;DHT22;6006;49.696;8.662;2023-01-16T02:14:45;4.90;1.00
11894;DHT22;6006;49.696;8.662;2023-01-16T02:17:15;5.00;1.00
11894;DHT22;6006;49.696;8.662;2023-01-16T02:20:20;5.10;99.90
11894;DHT22;6006;49.696;8.662;2023-01-16T02:23:19;5.10;99.90
11894;DHT22;6006;49.696;8.662;2023-01-16T02:26:30;5.10;99.90
11894;DHT22;6006;49.696;8.662;2023-01-16T02:29:39;5.10;99.90
11894;DHT22;6006;49.696;8.662;2023-01-16T02:32:22;5.20;1.00
11894;DHT22;6006;49.696;8.662;2023-01-16T02:35:13;5.20;1.00
11894;DHT22;6006;49.696;8.662;2023-01-16T02:37:46;5.20;99.90
11894;DHT22;6006;49.696;8.662;2023-01-16T02:40:22;5.20;1.00
11894;DHT22;6006;49.696;8.662;2023-01-16T02:42:59;5.20;1.00
11894;DHT22;6006;49.696;8.662;2023-01-16T02:45:38;5.20;99.90
11894;DHT22;6006;49.696;8.662;2023-01-16T02:48:12;5.20;99.90
11894;DHT22;6006;49.696;8.662;2023-01-16T02:50:48;5.20;99.90
11894;DHT22;6006;49.696;8.662;2023-01-16T02:53:22;5.20;99.90
11894;DHT22;6006;49.696;8.662;2023-01-16T02:55:53;5.30;99.90
11894;DHT22;6006;49.696;8.662;2023-01-16T02:58:24;5.30;79.90
11894;DHT22;6006;49.696;8.662;2023-01-16T03:00:52;5.30;99.90
11894;DHT22;6006;49.696;8.662;2023-01-16T03:03:42;5.30;99.90
11894;DHT22;6006;49.696;8.662;2023-01-16T03:06:29;5.30;99.90
11894;DHT22;6006;49.696;8.662;2023-01-16T03:09:21;5.30;99.90
11894;DHT22;6006;49.696;8.662;2023-01-16T03:12:05;5.30;99.90
11894;DHT22;6006;49.696;8.662;2023-01-16T03:14:36;5.30;99.90
11894;DHT22;6006;49.696;8.662;2023-01-16T03:17:14;5.30;99.90
11894;DHT22;6006;49.696;8.662;2023-01-16T03:19:55;5.30;1.00
11894;DHT22;6006;49.696;8.662;2023-01-16T03:22:29;5.30;99.90
11894;DHT22;6006;49.696;8.662;2023-01-16T03:25:15;5.40;1.00
11894;DHT22;6006;49.696;8.662;2023-01-16T03:27:50;5.50;99.90
11894;DHT22;6006;49.696;8.662;2023-01-16T03:30:26;5.30;99.90
11894;DHT22;6006;49.696;8.662;2023-01-16T03:32:58;5.30;99.90
11894;DHT22;6006;49.696;8.662;2023-01-16T03:35:31;5.30;1.00
11894;DHT22;6006;49.696;8.662;2023-01-16T03:38:02;5.30;99.90
11894;DHT22;6006;49.696;8.662;2023-01-16T03:40:34;4.70;99.90
11894;DHT22;6006;49.696;8.662;2023-01-16T03:43:05;5.30;1.00
11894;DHT22;6006;49.696;8.662;2023-01-16T03:45:36;5.30;1.00
11894;DHT22;6006;49.696;8.662;2023-01-16T03:48:09;5.20;1.00
11894;DHT22;6006;49.696;8.662;2023-01-16T03:50:41;5.20;1.00
11894;DHT22;6006;49.696;8.662;2023-01-16T03:53:11;5.30;99.90
11894;DHT22;6006;49.696;8.662;2023-01-16T03:55:42;5.30;99.90
11894;DHT22;6006;49.696;8.662;2023-01-16T03:58:15;5.30;1.00
11894;DHT22;6006;49.696;8.662;2023-01-16T04:00:50;5.20;1.00
11894;DHT22;6006;49.696;8.662;2023-01-16T04:03:26;5.20;1.00
11894;DHT22;6006;49.696;8.662;2023-01-16T04:05:59;5.20;1.00
11894;DHT22;6006;49.696;8.662;2023-01-16T04:08:35;5.20;30.70
11894;DHT22;6006;49.696;8.662;2023-01-16T04:11:04;5.20;1.00
11894;DHT22;6006;49.696;8.662;2023-01-16T04:13:34;5.20;1.00
11894;DHT22;6006;49.696;8.662;2023-01-16T04:16:05;5.30;99.90
11894;DHT22;6006;49.696;8.662;2023-01-16T04:18:35;5.30;1.00
11894;DHT22;6006;49.696;8.662;2023-01-16T04:21:05;5.30;99.90
11894;DHT22;6006;49.696;8.662;2023-01-16T04:23:33;5.30;1.00
11894;DHT22;6006;49.696;8.662;2023-01-16T04:26:00;5.20;99.90
11894;DHT22;6006;49.696;8.662;2023-01-16T04:28:27;5.30;1.00
11894;DHT22;6006;49.696;8.662;2023-01-16T04:30:54;5.30;99.90
11894;DHT22;6006;49.696;8.662;2023-01-16T04:33:21;5.30;99.90
11894;DHT22;6006;49.696;8.662;2023-01-16T04:35:48;5.30;99.90
11894;DHT22;6006;49.696;8.662;2023-01-16T04:38:16;5.40;99.90
11894;DHT22;6006;49.696;8.662;2023-01-16T04:40:43;5.40;1.00
11894;DHT22;6006;49.696;8.662;2023-01-16T04:43:10;5.40;22.10
11894;DHT22;6006;49.696;8.662;2023-01-16T04:45:36;5.50;99.90
11894;DHT22;6006;49.696;8.662;2023-01-16T04:48:05;5.50;1.00
11894;DHT22;6006;49.696;8.662;2023-01-16T04:50:32;5.50;99.90
11894;DHT22;6006;49.696;8.662;2023-01-16T04:52:58;5.50;99.90
11894;DHT22;6006;49.696;8.662;2023-01-16T04:55:27;5.40;1.00
11894;DHT22;6006;49.696;8.662;2023-01-16T04:57:54;5.40;99.90
11894;DHT22;6006;49.696;8.662;2023-01-16T05:00:21;5.50;99.90
11894;DHT22;6006;49.696;8.662;2023-01-16T05:02:48;5.50;99.90
11894;DHT22;6006;49.696;8.662;2023-01-16T05:05:15;5.60;1.00
11894;DHT22;6006;49.696;8.662;2023-01-16T05:07:41;5.60;99.90
11894;DHT22;6006;49.696;8.662;2023-01-16T05:10:10;5.60;1.00
11894;DHT22;6006;49.696;8.662;2023-01-16T05:12:38;5.60;99.90
11894;DHT22;6006;49.696;8.662;2023-01-16T05:15:05;5.70;1.00
11894;DHT22;6006;49.696;8.662;2023-01-16T05:17:32;5.60;99.90
11894;DHT22;6006;49.696;8.662;2023-01-16T05:19:59;5.60;1.00
11894;DHT22;6006;49.696;8.662;2023-01-16T05:22:26;5.60;1.00
11894;DHT22;6006;49.696;8.662;2023-01-16T05:24:53;5.60;99.90
11894;DHT22;6006;49.696;8.662;2023-01-16T05:27:20;5.70;1.00
11894;DHT22;6006;49.696;8.662;2023-01-16T05:29:48;5.70;1.00
11894;DHT22;6006;49.696;8.662;2023-01-16T05:32:15;5.70;1.00
11894;DHT22;6006;49.696;8.662;2023-01-16T05:34:42;5.60;7.50
11894;DHT22;6006;49.696;8.662;2023-01-16T05:37:09;5.50;99.90
11894;DHT22;6006;49.696;8.662;2023-01-16T05:39:35;5.50;99.90
11894;DHT22;6006;49.696;8.662;2023-01-16T05:42:02;5.50;99.90
11894;DHT22;6006;49.696;8.662;2023-01-16T05:44:29;5.40;99.90
11894;DHT22;6006;49.696;8.662;2023-01-16T05:46:57;5.40;99.90
11894;DHT22;6006;49.696;8.662;2023-01-16T05:49:24;5.50;1.00
11894;DHT22;6006;49.696;8.662;2023-01-16T05:51:51;5.50;1.00
11894;DHT22;6006;49.696;8.662;2023-01-16T05:54:18;5.50;1.00
11894;DHT22;6006;49.696;8.662;2023-01-16T05:56:45;5.60;1.00
11894;DHT22;6006;49.696;8.662;2023-01-16T05:59:13;5.60;1.00
11894;DHT22;6006;49.696;8.662;2023-01-16T06:01:40;5.50;88.40
11894;DHT22;6006;49.696;8.662;2023-01-16T06:04:08;5.60;1.00
11894;DHT22;6006;49.696;8.662;2023-01-16T06:06:35;5.70;1.00
11894;DHT22;6006;49.696;8.662;2023-01-16T06:09:02;5.60;1.00
11894;DHT22;6006;49.696;8.662;2023-01-16T06:11:29;5.50;1.00
11894;DHT22;6006;49.696;8.662;2023-01-16T06:13:55;5.60;1.00
11894;DHT22;6006;49.696;8.662;2023-01-16T06:16:22;5.60;1.00
11894;DHT22;6006;49.696;8.662;2023-01-16T06:18:49;5.50;99.90
11894;DHT22;6006;49.696;8.662;2023-01-16T06:21:17;5.50;99.90
11894;DHT22;6006;49.696;8.662;2023-01-16T06:23:44;5.40;99.90
11894;DHT22;6006;49.696;8.662;2023-01-16T06:26:11;5.40;99.90
11894;DHT22;6006;49.696;8.662;2023-01-16T06:28:38;5.30;99.90
11894;DHT22;6006;49.696;8.662;2023-01-16T06:31:06;5.30;1.00
11894;DHT22;6006;49.696;8.662;2023-01-16T06:33:33;5.20;1.00
11894;DHT22;6006;49.696;8.662;2023-01-16T06:36:00;5.10;1.00
11894;DHT22;6006;49.696;8.662;2023-01-16T06:38:29;5.10;99.90
11894;DHT22;6006;49.696;8.662;2023-01-16T06:40:56;5.10;1.00
11894;DHT22;6006;49.696;8.662;2023-01-16T06:43:23;5.00;1.00
11894;DHT22;6006;49.696;8.662;2023-01-16T06:45:50;5.00;1.00
11894;DHT22;6006;49.696;8.662;2023-01-16T06:48:17;5.00;1.00
11894;DHT22;6006;49.696;8.662;2023-01-16T06:50:44;4.90;1.00
11894;DHT22;6006;49.696;8.662;2023-01-16T06:53:11;4.90;99.90
11894;DHT22;6006;49.696;8.662;2023-01-16T06:55:40;4.90;1.00
11894;DHT22;6006;49.696;8.662;2023-01-16T06:58:08;4.90;1.00
11894;DHT22;6006;49.696;8.662;2023-01-16T07:00:35;4.90;1.00
11894;DHT22;6006;49.696;8.662;2023-01-16T07:03:03;5.00;99.90
11894;DHT22;6006;49.696;8.662;2023-01-16T07:05:31;5.00;1.00
11894;DHT22;6006;49.696;8.662;2023-01-16T07:07:58;4.90;1.00
11894;DHT22;6006;49.696;8.662;2023-01-16T07:10:25;5.00;99.90
11894;DHT22;6006;49.696;8.662;2023-01-16T07:12:53;5.10;99.90
11894;DHT22;6006;49.696;8.662;2023-01-16T07:15:21;5.10;36.90
11894;DHT22;6006;49.696;8.662;2023-01-16T07:18:06;5.10;99.90
11894;DHT22;6006;49.696;8.662;2023-01-16T07:21:03;5.20;1.00
11894;DHT22;6006;49.696;8.662;2023-01-16T07:23:50;5.30;67.60
11894;DHT22;6006;49.696;8.662;2023-01-16T07:26:18;5.30;1.00
11894;DHT22;6006;49.696;8.662;2023-01-16T07:28:49;5.40;1.00
11894;DHT22;6006;49.696;8.662;2023-01-16T07:31:16;5.40;1.00
11894;DHT22;6006;49.696;8.662;2023-01-16T07:33:43;5.30;1.00
11894;DHT22;6006;49.696;8.662;2023-01-16T07:36:10;5.30;1.00
11894;DHT22;6006;49.696;8.662;2023-01-16T07:38:37;5.30;1.00
11894;DHT22;6006;49.696;8.662;2023-01-16T07:41:04;5.20;1.00
11894;DHT22;6006;49.696;8.662;2023-01-16T07:43:31;5.30;1.00
11894;DHT22;6006;49.696;8.662;2023-01-16T07:45:59;5.30;1.00
11894;DHT22;6006;49.696;8.662;2023-01-16T07:48:26;5.30;1.00
11894;DHT22;6006;49.696;8.662;2023-01-16T07:50:54;5.20;72.70
11894;DHT22;6006;49.696;8.662;2023-01-16T07:53:23;5.20;1.00
11894;DHT22;6006;49.696;8.662;2023-01-16T07:55:51;5.20;99.90
11894;DHT22;6006;49.696;8.662;2023-01-16T07:58:18;5.20;1.00
11894;DHT22;6006;49.696;8.662;2023-01-16T08:00:47;5.20;31.90
11894;DHT22;6006;49.696;8.662;2023-01-16T08:03:15;5.20;1.00
11894;DHT22;6006;49.696;8.662;2023-01-16T08:05:42;5.20;1.00
11894;DHT22;6006;49.696;8.662;2023-01-16T08:08:09;5.20;1.00
11894;DHT22;6006;49.696;8.662;2023-01-16T08:10:36;5.20;1.00
11894;DHT22;6006;49.696;8.662;2023-01-16T08:13:03;5.20;1.00
11894;DHT22;6006;49.696;8.662;2023-01-16T08:15:30;5.20;1.00
11894;DHT22;6006;49.696;8.662;2023-01-16T08:17:57;5.20;1.00
11894;DHT22;6006;49.696;8.662;2023-01-16T08:20:25;5.20;1.00
11894;DHT22;6006;49.696;8.662;2023-01-16T08:22:53;5.20;99.90
11894;DHT22;6006;49.696;8.662;2023-01-16T08:25:22;5.20;99.90
11894;DHT22;6006;49.696;8.662;2023-01-16T08:27:50;5.30;99.90
11894;DHT22;6006;49.696;8.662;2023-01-16T08:30:18;5.40;99.90
11894;DHT22;6006;49.696;8.662;2023-01-16T08:32:45;5.40;99.90
11894;DHT22;6006;49.696;8.662;2023-01-16T08:35:13;5.50;99.90
11894;DHT22;6006;49.696;8.662;2023-01-16T08:37:47;5.50;99.90
11894;DHT22;6006;49.696;8.662;2023-01-16T08:40:14;5.60;99.90
11894;DHT22;6006;49.696;8.662;2023-01-16T08:42:41;5.60;48.40
11894;DHT22;6006;49.696;8.662;2023-01-16T08:45:25;5.70;2.80
11894;DHT22;6006;49.696;8.662;2023-01-16T08:48:10;5.70;1.00
11894;DHT22;6006;49.696;8.662;2023-01-16T08:50:56;5.80;17.70
11894;DHT22;6006;49.696;8.662;2023-01-16T08:53:42;5.80;1.00
11894;DHT22;6006;49.696;8.662;2023-01-16T08:56:09;5.80;1.00
11894;DHT22;6006;49.696;8.662;2023-01-16T08:58:36;5.80;1.00
11894;DHT22;6006;49.696;8.662;2023-01-16T09:01:03;5.80;1.30
11894;DHT22;6006;49.696;8.662;2023-01-16T09:03:30;5.80;1.00
11894;DHT22;6006;49.696;8.662;2023-01-16T09:05:56;5.80;99.90
11894;DHT22;6006;49.696;8.662;2023-01-16T09:08:23;5.80;44.40
11894;DHT22;6006;49.696;8.662;2023-01-16T09:10:52;5.80;1.00
11894;DHT22;6006;49.696;8.662;2023-01-16T09:13:36;5.80;1.00
11894;DHT22;6006;49.696;8.662;2023-01-16T09:16:15;5.80;1.00
11894;DHT22;6006;49.696;8.662;2023-01-16T09:18:43;5.80;59.00
11894;DHT22;6006;49.696;8.662;2023-01-16T09:21:09;5.80;99.90
11894;DHT22;6006;49.696;8.662;2023-01-16T09:23:36;5.70;99.90
11894;DHT22;6006;49.696;8.662;2023-01-16T09:26:05;5.70;99.90
11894;DHT22;6006;49.696;8.662;2023-01-16T09:28:32;5.70;99.90
11894;DHT22;6006;49.696;8.662;2023-01-16T09:30:59;5.60;1.00
11894;DHT22;6006;49.696;8.662;2023-01-16T09:33:26;5.60;1.00
11894;DHT22;6006;49.696;8.662;2023-01-16T09:35:52;5.50;1.00
11894;DHT22;6006;49.696;8.662;2023-01-16T09:38:19;5.60;49.90
11894;DHT22;6006;49.696;8.662;2023-01-16T09:40:48;5.60;1.00
11894;DHT22;6006;49.696;8.662;2023-01-16T09:43:31;5.60;1.00
11894;DHT22;6006;49.696;8.662;2023-01-16T09:46:04;5.50;1.00
11894;DHT22;6006;49.696;8.662;2023-01-16T09:48:33;5.50;1.00
11894;DHT22;6006;49.696;8.662;2023-01-16T09:51:04;5.50;1.00
11894;DHT22;6006;49.696;8.662;2023-01-16T09:53:40;5.50;1.00
11894;DHT22;6006;49.696;8.662;2023-01-16T09:56:30;5.40;1.00
11894;DHT22;6006;49.696;8.662;2023-01-16T09:59:24;5.30;99.90
11894;DHT22;6006;49.696;8.662;2023-01-16T10:01:57;5.30;1.00
11894;DHT22;6006;49.696;8.662;2023-01-16T10:04:27;5.20;1.00
11894;DHT22;6006;49.696;8.662;2023-01-16T10:07:15;5.20;99.90
11894;DHT22;6006;49.696;8.662;2023-01-16T10:09:52;5.10;99.90
11894;DHT22;6006;49.696;8.662;2023-01-16T10:12:21;5.00;1.00
11894;DHT22;6006;49.696;8.662;2023-01-16T10:15:04;5.00;1.00
11894;DHT22;6006;49.696;8.662;2023-01-16T10:17:37;5.00;1.00
11894;DHT22;6006;49.696;8.662;2023-01-16T10:20:31;4.90;99.90
11894;DHT22;6006;49.696;8.662;2023-01-16T10:23:11;4.90;6.10
11894;DHT22;6006;49.696;8.662;2023-01-16T10:25:46;4.80;1.00
11894;DHT22;6006;49.696;8.662;2023-01-16T10:28:24;4.80;1.00
11894;DHT22;6006;49.696;8.662;2023-01-16T10:30:55;4.80;99.90
11894;DHT22;6006;49.696;8.662;2023-01-16T10:33:31;4.70;52.40
11894;DHT22;6006;49.696;8.662;2023-01-16T10:36:02;4.70;1.00
11894;DHT22;6006;49.696;8.662;2023-01-16T10:38:33;4.70;99.90
11894;DHT22;6006;49.696;8.662;2023-01-16T10:41:15;4.60;99.90
11894;DHT22;6006;49.696;8.662;2023-01-16T10:43:57;4.60;99.90
11894;DHT22;6006;49.696;8.662;2023-01-16T10:46:44;4.60;99.90
11894;DHT22;6006;49.696;8.662;2023-01-16T10:49:28;4.50;1.00
11894;DHT22;6006;49.696;8.662;2023-01-16T10:51:57;4.50;1.00
11894;DHT22;6006;49.696;8.662;2023-01-16T10:54:24;4.50;1.00
11894;DHT22;6006;49.696;8.662;2023-01-16T10:56:51;4.40;1.00
11894;DHT22;6006;49.696;8.662;2023-01-16T10:59:18;4.40;1.00
11894;DHT22;6006;49.696;8.662;2023-01-16T11:01:48;4.30;1.00
11894;DHT22;6006;49.696;8.662;2023-01-16T11:04:18;4.40;1.00
11894;DHT22;6006;49.696;8.662;2023-01-16T11:06:46;4.30;1.00
11894;DHT22;6006;49.696;8.662;2023-01-16T11:09:18;4.30;1.00
11894;DHT22;6006;49.696;8.662;2023-01-16T11:11:49;4.30;10.90
11894;DHT22;6006;49.696;8.662;2023-01-16T11:14:35;4.30;1.00
11894;DHT22;6006;49.696;8.662;2023-01-16T11:17:25;4.30;1.00
11894;DHT22;6006;49.696;8.662;2023-01-16T11:20:13;4.30;1.00
11894;DHT22;6006;49.696;8.662;2023-01-16T11:22:45;4.30;1.00
11894;DHT22;6006;49.696;8.662;2023-01-16T11:25:15;4.40;1.00
11894;DHT22;6006;49.696;8.662;2023-01-16T11:27:45;4.50;1.00
11894;DHT22;6006;49.696;8.662;2023-01-16T11:30:16;4.50;1.00
11894;DHT22;6006;49.696;8.662;2023-01-16T11:32:46;4.50;1.00
11894;DHT22;6006;49.696;8.662;2023-01-16T11:35:16;4.60;1.00
11894;DHT22;6006;49.696;8.662;2023-01-16T11:37:45;4.70;1.00
11894;DHT22;6006;49.696;8.662;2023-01-16T11:40:17;4.70;1.00
11894;DHT22;6006;49.696;8.662;2023-01-16T11:42:53;4.80;1.00
11894;DHT22;6006;49.696;8.662;2023-01-16T11:45:43;4.80;1.00
11894;DHT22;6006;49.696;8.662;2023-01-16T11:48:39;5.00;99.90
11894;DHT22;6006;49.696;8.662;2023-01-16T11:51:12;5.10;99.90
11894;DHT22;6006;49.696;8.662;2023-01-16T11:53:39;5.20;1.00
11894;DHT22;6006;49.696;8.662;2023-01-16T11:56:29;5.30;99.90
11894;DHT22;6006;49.696;8.662;2023-01-16T11:59:11;5.30;1.00
11894;DHT22;6006;49.696;8.662;2023-01-16T12:01:51;5.50;1.00
11894;DHT22;6006;49.696;8.662;2023-01-16T12:04:43;5.60;1.00
11894;DHT22;6006;49.696;8.662;2023-01-16T12:07:41;5.70;1.00
11894;DHT22;6006;49.696;8.662;2023-01-16T12:10:20;5.70;99.90
11894;DHT22;6006;49.696;8.662;2023-01-16T12:12:54;5.60;1.00
11894;DHT22;6006;49.696;8.662;2023-01-16T12:15:54;5.60;1.00
11894;DHT22;6006;49.696;8.662;2023-01-16T12:18:28;5.70;1.00
11894;DHT22;6006;49.696;8.662;2023-01-16T12:20:59;5.80;1.00
11894;DHT22;6006;49.696;8.662;2023-01-16T12:23:47;5.90;1.00
11894;DHT22;6006;49.696;8.662;2023-01-16T12:26:20;5.90;99.90
11894;DHT22;6006;49.696;8.662;2023-01-16T12:29:00;6.00;1.00
11894;DHT22;6006;49.696;8.662;2023-01-16T12:31:46;6.00;99.90
11894;DHT22;6006;49.696;8.662;2023-01-16T12:34:29;6.10;99.90
11894;DHT22;6006;49.696;8.662;2023-01-16T12:37:11;6.10;1.00
11894;DHT22;6006;49.696;8.662;2023-01-16T12:39:44;6.20;1.00
11894;DHT22;6006;49.696;8.662;2023-01-16T12:42:21;6.20;1.00
11894;DHT22;6006;49.696;8.662;2023-01-16T12:45:20;6.30;1.00
11894;DHT22;6006;49.696;8.662;2023-01-16T12:47:58;6.50;10.30
11894;DHT22;6006;49.696;8.662;2023-01-16T12:50:42;6.70;99.90
11894;DHT22;6006;49.696;8.662;2023-01-16T12:53:35;7.00;1.00
11894;DHT22;6006;49.696;8.662;2023-01-16T12:56:18;6.90;1.00
11894;DHT22;6006;49.696;8.662;2023-01-16T12:58:51;6.80;1.00
11894;DHT22;6006;49.696;8.662;2023-01-16T13:01:23;6.80;1.00
11894;DHT22;6006;49.696;8.662;2023-01-16T13:03:53;6.90;1.00
11894;DHT22;6006;49.696;8.662;2023-01-16T13:06:26;7.00;1.00
11894;DHT22;6006;49.696;8.662;2023-01-16T13:08:58;7.00;99.90
11894;DHT22;6006;49.696;8.662;2023-01-16T13:11:38;7.00;1.00
11894;DHT22;6006;49.696;8.662;2023-01-16T13:14:27;7.00;99.90
11894;DHT22;6006;49.696;8.662;2023-01-16T13:17:01;7.00;99.90
11894;DHT22;6006;49.696;8.662;2023-01-16T13:19:32;7.00;99.90
11894;DHT22;6006;49.696;8.662;2023-01-16T13:22:05;7.00;99.90
11894;DHT22;6006;49.696;8.662;2023-01-16T13:24:43;7.00;99.90
11894;DHT22;6006;49.696;8.662;2023-01-16T13:27:15;6.90;99.90
11894;DHT22;6006;49.696;8.662;2023-01-16T13:29:48;6.90;41.30
11894;DHT22;6006;49.696;8.662;2023-01-16T13:32:23;6.90;71.70
11894;DHT22;6006;49.696;8.662;2023-01-16T13:34:53;6.90;99.90
11894;DHT22;6006;49.696;8.662;2023-01-16T13:40:33;6.90;99.90
11894;DHT22;6006;49.696;8.662;2023-01-16T13:43:06;6.90;99.90
11894;DHT22;6006;49.696;8.662;2023-01-16T13:45:53;6.80;1.00
11894;DHT22;6006;49.696;8.662;2023-01-16T13:48:22;6.70;1.00
11894;DHT22;6006;49.696;8.662;2023-01-16T13:50:57;6.70;1.00
11894;DHT22;6006;49.696;8.662;2023-01-16T13:53:25;6.70;1.00
11894;DHT22;6006;49.696;8.662;2023-01-16T13:56:04;6.60;1.00
11894;DHT22;6006;49.696;8.662;2023-01-16T13:58:32;6.60;1.00
11894;DHT22;6006;49.696;8.662;2023-01-16T14:01:01;6.60;99.90
11894;DHT22;6006;49.696;8.662;2023-01-16T14:03:29;6.60;1.00
11894;DHT22;6006;49.696;8.662;2023-01-16T14:06:15;6.50;99.90
11894;DHT22;6006;49.696;8.662;2023-01-16T14:08:48;6.50;99.90
11894;DHT22;6006;49.696;8.662;2023-01-16T14:11:39;6.50;1.00
11894;DHT22;6006;49.696;8.662;2023-01-16T14:14:32;6.60;99.90
11894;DHT22;6006;49.696;8.662;2023-01-16T14:17:18;6.70;99.90
11894;DHT22;6006;49.696;8.662;2023-01-16T14:19:55;6.70;1.00
11894;DHT22;6006;49.696;8.662;2023-01-16T14:22:24;6.70;99.90
11894;DHT22;6006;49.696;8.662;2023-01-16T14:25:19;6.70;99.90
11894;DHT22;6006;49.696;8.662;2023-01-16T14:27:51;6.60;99.90
11894;DHT22;6006;49.696;8.662;2023-01-16T14:30:23;6.60;99.90
11894;DHT22;6006;49.696;8.662;2023-01-16T14:32:53;6.60;99.90
11894;DHT22;6006;49.696;8.662;2023-01-16T14:35:23;6.60;1.00
11894;DHT22;6006;49.696;8.662;2023-01-16T14:37:55;6.60;99.90
11894;DHT22;6006;49.696;8.662;2023-01-16T14:40:25;6.60;65.20
11894;DHT22;6006;49.696;8.662;2023-01-16T14:43:17;6.60;99.90
11894;DHT22;6006;49.696;8.662;2023-01-16T14:46:31;6.70;1.00
11894;DHT22;6006;49.696;8.662;2023-01-16T14:49:44;6.60;35.00
11894;DHT22;6006;49.696;8.662;2023-01-16T14:52:51;6.60;99.90
11894;DHT22;6006;49.696;8.662;2023-01-16T14:55:48;6.60;99.90
11894;DHT22;6006;49.696;8.662;2023-01-16T14:58:24;6.50;99.90
11894;DHT22;6006;49.696;8.662;2023-01-16T15:00:55;6.50;1.00
11894;DHT22;6006;49.696;8.662;2023-01-16T15:03:43;6.50;1.00
11894;DHT22;6006;49.696;8.662;2023-01-16T15:06:11;6.50;99.90
11894;DHT22;6006;49.696;8.662;2023-01-16T15:08:40;6.50;1.00
11894;DHT22;6006;49.696;8.662;2023-01-16T15:11:11;6.50;99.90
11894;DHT22;6006;49.696;8.662;2023-01-16T15:14:07;6.60;99.90
11894;DHT22;6006;49.696;8.662;2023-01-16T15:17:05;6.60;1.00
11894;DHT22;6006;49.696;8.662;2023-01-16T15:19:59;6.50;1.00
11894;DHT22;6006;49.696;8.662;2023-01-16T15:22:46;6.40;1.00
11894;DHT22;6006;49.696;8.662;2023-01-16T15:25:22;6.40;1.00
11894;DHT22;6006;49.696;8.662;2023-01-16T15:27:54;6.50;1.00
11894;DHT22;6006;49.696;8.662;2023-01-16T15:30:26;6.40;99.90
11894;DHT22;6006;49.696;8.662;2023-01-16T15:32:55;6.40;1.00
11894;DHT22;6006;49.696;8.662;2023-01-16T15:35:42;6.40;1.00
11894;DHT22;6006;49.696;8.662;2023-01-16T15:38:09;6.30;1.00
11894;DHT22;6006;49.696;8.662;2023-01-16T15:40:37;6.30;1.00
11894;DHT22;6006;49.696;8.662;2023-01-16T15:43:04;6.30;99.90
11894;DHT22;6006;49.696;8.662;2023-01-16T15:45:56;6.10;1.00
11894;DHT22;6006;49.696;8.662;2023-01-16T15:48:48;6.20;1.00
11894;DHT22;6006;49.696;8.662;2023-01-16T15:51:20;6.20;99.90
11894;DHT22;6006;49.696;8.662;2023-01-16T15:53:49;6.20;71.20
11894;DHT22;6006;49.696;8.662;2023-01-16T15:56:22;6.20;99.90
11894;DHT22;6006;49.696;8.662;2023-01-16T15:58:50;6.20;99.90
11894;DHT22;6006;49.696;8.662;2023-01-16T16:01:26;6.10;99.90
11894;DHT22;6006;49.696;8.662;2023-01-16T16:03:53;6.10;1.00
11894;DHT22;6006;49.696;8.662;2023-01-16T16:06:22;6.10;1.00
11894;DHT22;6006;49.696;8.662;2023-01-16T16:08:51;6.00;1.00
11894;DHT22;6006;49.696;8.662;2023-01-16T16:11:21;6.10;1.00
11894;DHT22;6006;49.696;8.662;2023-01-16T16:14:06;6.00;1.00
11894;DHT22;6006;49.696;8.662;2023-01-16T16:17:04;6.00;1.00
11894;DHT22;6006;49.696;8.662;2023-01-16T16:19:49;6.00;1.00
11894;DHT22;6006;49.696;8.662;2023-01-16T16:22:18;6.00;1.00
11894;DHT22;6006;49.696;8.662;2023-01-16T16:25:08;5.90;1.00
11894;DHT22;6006;49.696;8.662;2023-01-16T16:27:42;5.90;14.30
11894;DHT22;6006;49.696;8.662;2023-01-16T16:30:16;5.90;89.00
11894;DHT22;6006;49.696;8.662;2023-01-16T16:32:46;5.90;24.30
11894;DHT22;6006;49.696;8.662;2023-01-16T16:35:17;5.90;1.00
11894;DHT22;6006;49.696;8.662;2023-01-16T16:37:46;5.90;1.00
11894;DHT22;6006;49.696;8.662;2023-01-16T16:40:14;5.80;69.00
11894;DHT22;6006;49.696;8.662;2023-01-16T16:42:52;5.70;99.90
11894;DHT22;6006;49.696;8.662;2023-01-16T16:45:26;5.70;99.90
11894;DHT22;6006;49.696;8.662;2023-01-16T16:48:31;5.70;99.90
11894;DHT22;6006;49.696;8.662;2023-01-16T16:51:21;5.70;1.00
11894;DHT22;6006;49.696;8.662;2023-01-16T16:53:52;5.70;1.00